EW4484 Weather Reports


Display with metric or nautical units.
time (UTC)temp
F
wind
direction
speed
MPH
gust
MPH
rain 1hr
in
rain 24hr
in
rain mn
in
humidity
%
barometer
mb
20200221064407 32 196 2.0 6.0 0.00 0.00 0.00 100 1032.0
20200221063407 32 194 2.0 5.0 0.00 0.00 0.00 100 1032.0
20200221062406 32 199 2.0 5.0 0.00 0.00 0.00 100 1032.0
20200221061406 32 216 1.0 5.0 0.00 0.00 0.00 100 1031.0
20200221060406 32 271 1.0 6.0 0.00 0.00 0.00 100 1031.0
20200221055406 32 229 3.0 5.0 0.00 0.00 0.00 100 1031.0
20200221054406 32 186 2.0 6.0 0.00 0.00 0.00 100 1031.0
20200221053406 32 202 2.0 6.0 0.00 0.00 0.00 100 1032.0
20200221052406 32 215 3.0 6.0 0.00 0.00 0.00 100 1032.0
20200221051406 32 200 3.0 5.0 0.00 0.00 0.00 100 1032.0
20200221050406 32 200 1.0 3.0 0.00 0.00 0.00 100 1032.0
20200221045407 32 176 0.0 2.0 0.00 0.00 0.00 100 1032.0
20200221044407 32 213 2.0 3.0 0.00 0.00 0.00 100 1032.0
20200221043407 32 209 2.0 3.0 0.00 0.00 0.00 100 1033.0
20200221042406 32 219 1.0 2.0 0.00 0.00 0.00 100 1033.0
20200221041406 32 205 2.0 3.0 0.00 0.00 0.00 100 1033.0
20200221040406 32 182 2.0 5.0 0.00 0.00 0.00 100 1032.0
20200221035406 32 188 2.0 5.0 0.00 0.00 0.00 100 1032.0
20200221034406 32 215 2.0 7.0 0.00 0.00 0.00 100 1033.0
20200221033406 32 214 3.0 6.0 0.00 0.00 0.00 100 1034.0
20200221032406 32 194 3.0 6.0 0.00 0.00 0.00 100 1034.0
20200221031406 32 198 4.0 8.0 0.00 0.00 0.00 100 1034.0
20200221030406 32 201 3.0 7.0 0.00 0.00 0.00 100 1035.0
20200221025406 32 198 4.0 6.0 0.00 0.00 0.00 100 1035.0
20200221024406 32 209 2.0 6.0 0.00 0.00 0.00 100 1035.0
20200221023406 32 166 1.0 5.0 0.00 0.00 0.00 100 1035.0
20200221022407 32 175 2.0 5.0 0.00 0.00 0.00 100 1035.0
20200221021406 32 192 2.0 5.0 0.00 0.00 0.00 100 1036.0
20200221020406 32 208 2.0 5.0 0.00 0.00 0.00 100 1036.0
20200221015406 32 181 2.0 3.0 0.00 0.00 0.00 100 1036.0
20200221014407 32 180 3.0 5.0 0.00 0.00 0.00 100 1036.0
20200221013407 32 169 1.0 3.0 0.00 0.00 0.00 100 1037.0
20200221012406 32 287 2.0 5.0 0.00 0.00 0.00 100 1037.0
20200221011406 32 202 2.0 5.0 0.00 0.00 0.00 100 1037.0
20200221010406 32 180 3.0 6.0 0.00 0.00 0.00 100 1037.0
20200221005406 32 188 2.0 5.0 0.00 0.00 0.00 100 1037.0
20200221004407 32 200 1.0 5.0 0.00 0.00 0.00 100 1037.0
20200221003406 32 189 2.0 5.0 0.00 0.00 0.00 100 1037.0
20200221002406 32 206 1.0 5.0 0.00 0.00 0.00 100 1037.0
20200221001406 32 177 1.0 3.0 0.00 0.00 0.00 100 1037.0
20200221000407 32 205 0.0 3.0 0.00 0.00 0.00 100 1038.0
20200220235406 32 309 1.0 2.0 0.00 0.00 0.00 100 1038.0
20200220234407 32 39 0.0 2.0 0.00 0.00 0.00 100 1038.0
20200220233406 32 355 1.0 3.0 0.00 0.00 0.00 100 1038.0
20200220232406 32 46 1.0 3.0 0.00 0.00 0.00 100 1038.0
20200220231406 32 20 0.0 2.0 0.00 0.00 0.00 100 1038.0
20200220230406 32 36 0.0 3.0 0.00 0.00 0.00 100 1038.0
20200220225406 32 68 2.0 6.0 0.00 0.00 0.00 100 1038.0
20200220224406 32 112 1.0 2.0 0.00 0.00 0.00 100 1038.0
20200220223406 32 158 1.0 2.0 0.00 0.00 0.00 100 1038.0
20200220222406 32 158 2.0 3.0 0.00 0.00 0.00 100 1038.0
20200220221406 32 158 0.0 1.0 0.00 0.00 0.00 100 1038.0
20200220220406 32 172 1.0 3.0 0.00 0.00 0.00 100 1037.0
20200220215406 32 202 2.0 6.0 0.00 0.00 0.00 100 1037.0
20200220214406 32 325 5.0 8.0 0.00 0.00 0.00 100 1037.0
20200220213406 32 338 2.0 6.0 0.00 0.00 0.00 100 1037.0
20200220212406 32 338 0.0 2.0 0.00 0.00 0.00 100 1037.0
20200220211406 32 158 0.0 1.0 0.00 0.00 0.00 100 1037.0
20200220210406 32 165 0.0 2.0 0.00 0.00 0.00 100 1037.0
20200220205405 32 164 2.0 6.0 0.00 0.00 0.00 100 1036.7
20200220204406 32 213 2.0 3.0 0.00 0.00 0.00 100 1035.0
20200220203405 32 147 1.0 5.0 0.00 0.00 0.00 100 1036.0
20200220202406 32 196 2.0 6.0 0.00 0.00 0.00 100 1035.9
20200220201406 32 315 3.0 8.0 0.00 0.00 0.00 100 1035.0
20200220200406 32 174 0.0 2.0 0.00 0.00 0.00 100 1035.0
20200220195406 32 180 0.0 2.0 0.00 0.00 0.00 100 1035.0
20200220194405 32 180 1.0 2.0 0.00 0.00 0.00 100 1035.0
20200220193405 32 211 1.0 3.0 0.00 0.00 0.00 100 1035.0
20200220192406 32 326 1.0 3.0 0.00 0.00 0.00 100 1035.0
20200220191405 32 338 1.0 2.0 0.00 0.00 0.00 100 1035.0
20200220190405 32 149 1.0 1.0 0.00 0.00 0.00 100 1035.0
20200220185410 32 202 0.0 1.0 0.00 0.00 0.00 100 1035.0
20200220184410 32 158 1.0 1.0 0.00 0.00 0.00 100 1035.0
20200220183410 32 285 1.0 3.0 0.00 0.00 0.00 100 1035.0
20200220182411 32 162 1.0 3.0 0.00 0.00 0.00 100 1035.0
20200220181410 32 221 1.0 5.0 0.00 0.00 0.00 100 1034.0
20200220180410 32 327 1.0 5.0 0.00 0.00 0.00 100 1034.0
20200220175410 32 332 3.0 8.0 0.00 0.00 0.00 100 1034.0
20200220174410 32 331 5.0 12.0 0.00 0.00 0.00 100 1034.0
20200220173410 32 320 6.0 10.0 0.00 0.00 0.00 100 1034.0
20200220172410 32 329 6.0 13.0 0.00 0.00 0.00 100 1034.0
20200220171410 32 352 6.0 13.0 0.00 0.00 0.00 100 1034.0
20200220170411 32 350 7.0 14.0 0.00 0.00 0.00 100 1034.0
20200220165410 32 339 7.0 15.0 0.00 0.00 0.00 100 1034.0
20200220164410 32 324 9.0 17.0 0.00 0.00 0.00 100 1034.0
20200220163410 32 354 9.0 15.0 0.00 0.00 0.00 100 1034.0
20200220162410 32 338 9.0 15.0 0.00 0.00 0.00 100 1034.0
20200220161410 32 358 10.0 14.0 0.00 0.00 0.00 100 1034.0
20200220160410 32 327 6.0 10.0 0.00 0.00 0.00 100 1034.0
20200220155410 32 311 7.0 10.0 0.00 0.00 0.00 100 1034.0
20200220154410 32 341 5.0 10.0 0.00 0.00 0.00 100 1034.0
20200220153410 32 349 5.0 8.0 0.00 0.00 0.00 100 1034.0
20200220152410 32 345 5.0 8.0 0.00 0.00 0.00 100 1034.0
20200220151410 32 334 2.0 8.0 0.00 0.00 0.00 100 1034.0
20200220150410 32 321 5.0 13.0 0.00 0.00 0.00 100 1034.0
20200220145410 32 338 6.0 13.0 0.00 0.00 0.00 100 1034.0
20200220144410 32 338 5.0 13.0 0.00 0.00 0.00 100 1034.0
20200220143410 32 321 6.0 9.0 0.00 0.00 0.00 100 1034.0
20200220142410 32 347 5.0 14.0 0.00 0.00 0.00 100 1034.0
20200220141410 32 329 5.0 10.0 0.00 0.00 0.00 100 1034.0
20200220140410 32 338 3.0 8.0 0.00 0.00 0.00 100 1034.0
20200220135410 32 348 5.0 9.0 0.00 0.00 0.00 100 1033.9
20200220134411 32 330 5.0 8.0 0.00 0.00 0.00 100 1033.0
20200220133410 32 334 4.0 8.0 0.00 0.00 0.00 100 1034.0
20200220132410 32 328 3.0 7.0 0.00 0.00 0.00 100 1034.0
20200220131410 32 351 3.0 6.0 0.00 0.00 0.00 100 1033.0
20200220130410 32 346 3.0 6.0 0.00 0.00 0.00 100 1033.0
20200220125409 32 338 2.0 7.0 0.00 0.00 0.00 100 1033.0
20200220124410 32 338 5.0 8.0 0.00 0.00 0.00 100 1033.0
20200220123410 32 334 5.0 9.0 0.00 0.00 0.00 100 1032.0
20200220122410 32 347 6.0 13.0 0.00 0.00 0.00 100 1032.0
20200220121410 32 332 7.0 12.0 0.00 0.00 0.00 100 1032.0
20200220120411 32 340 5.0 10.0 0.00 0.00 0.00 100 1033.0
20200220115410 32 344 9.0 15.0 0.00 0.00 0.00 100 1033.0
20200220114410 32 325 6.0 16.0 0.00 0.00 0.00 100 1033.0
20200220113410 32 339 6.0 14.0 0.00 0.00 0.00 100 1032.0
20200220112410 32 325 5.0 14.0 0.00 0.00 0.00 100 1032.0
20200220111410 32 333 9.0 14.0 0.00 0.00 0.00 100 1031.0
20200220110409 32 322 10.0 18.0 0.00 0.00 0.00 100 1031.0
20200220105410 32 324 6.0 16.0 0.00 0.00 0.00 100 1031.0
20200220104409 32 13 9.0 17.0 0.00 0.00 0.00 100 1031.0
20200220103410 32 302 7.0 21.0 0.00 0.00 0.00 100 1031.0
20200220102410 32 313 13.0 22.0 0.00 0.00 0.00 100 1031.0
20200220101409 32 306 8.0 24.0 0.00 0.00 0.00 100 1031.0
20200220100409 32 278 6.0 17.0 0.00 0.00 0.00 100 1031.0
20200220095410 32 315 5.0 15.0 0.00 0.00 0.00 100 1031.0
20200220094409 32 305 6.0 13.0 0.00 0.00 0.00 100 1030.0
20200220093410 32 348 6.0 15.0 0.00 0.00 0.00 100 1030.0
20200220092409 32 305 7.0 15.0 0.00 0.00 0.00 100 1030.0
20200220091410 32 309 6.0 14.0 0.00 0.00 0.00 100 1029.0
20200220090409 32 308 6.0 12.0 0.00 0.00 0.00 100 1029.0
20200220085410 32 309 4.0 9.0 0.00 0.00 0.00 100 1029.0
20200220084410 32 292 7.0 10.0 0.00 0.00 0.00 100 1029.0
20200220083410 32 353 3.0 9.0 0.00 0.00 0.00 100 1029.0
20200220082410 32 349 5.0 13.0 0.00 0.00 0.00 100 1029.0
20200220081409 32 329 4.0 10.0 0.00 0.00 0.00 100 1029.0
20200220080409 32 322 5.0 12.0 0.00 0.00 0.00 100 1029.0
20200220075409 32 331 5.0 9.0 0.00 0.00 0.00 100 1028.9
20200220074409 32 320 6.0 14.0 0.00 0.00 0.00 100 1028.0
20200220073410 32 328 5.0 10.0 0.00 0.00 0.00 100 1028.0
20200220072410 32 327 6.0 10.0 0.00 0.00 0.00 100 1028.0
20200220071410 32 323 5.0 10.0 0.00 0.00 0.00 100 1028.0
20200220070409 32 342 5.0 15.0 0.00 0.00 0.00 100 1028.0
20200220065409 32 306 4.0 14.0 0.00 0.00 0.00 100 1028.0